sensor_id;sensor_type;location;lat;lon;timestamp;P1;durP1;ratioP1;P2;durP2;ratioP2
26710;SDS011;18311;52.754;18.118;2022-07-29T00:01:57;9.48;;;3.72;;
26710;SDS011;18311;52.754;18.118;2022-07-29T00:04:28;8.63;;;3.58;;
26710;SDS011;18311;52.754;18.118;2022-07-29T00:07:00;7.08;;;3.50;;
26710;SDS011;18311;52.754;18.118;2022-07-29T00:09:32;9.05;;;3.72;;
26710;SDS011;18311;52.754;18.118;2022-07-29T00:12:06;7.03;;;3.52;;
26710;SDS011;18311;52.754;18.118;2022-07-29T00:14:38;9.88;;;3.85;;
26710;SDS011;18311;52.754;18.118;2022-07-29T00:17:11;6.08;;;3.37;;
26710;SDS011;18311;52.754;18.118;2022-07-29T00:19:45;9.68;;;3.92;;
26710;SDS011;18311;52.754;18.118;2022-07-29T00:22:16;7.15;;;3.65;;
26710;SDS011;18311;52.754;18.118;2022-07-29T00:24:48;5.87;;;3.52;;
26710;SDS011;18311;52.754;18.118;2022-07-29T00:27:20;10.93;;;3.95;;
26710;SDS011;18311;52.754;18.118;2022-07-29T00:29:51;8.00;;;3.30;;
26710;SDS011;18311;52.754;18.118;2022-07-29T00:32:24;6.55;;;3.35;;
26710;SDS011;18311;52.754;18.118;2022-07-29T00:34:55;8.45;;;3.27;;
26710;SDS011;18311;52.754;18.118;2022-07-29T00:37:45;7.58;;;3.58;;
26710;SDS011;18311;52.754;18.118;2022-07-29T00:40:16;7.25;;;3.75;;
26710;SDS011;18311;52.754;18.118;2022-07-29T00:42:50;5.62;;;3.15;;
26710;SDS011;18311;52.754;18.118;2022-07-29T00:45:22;6.28;;;3.25;;
26710;SDS011;18311;52.754;18.118;2022-07-29T00:47:53;7.60;;;3.50;;
26710;SDS011;18311;52.754;18.118;2022-07-29T00:50:25;8.85;;;3.12;;
26710;SDS011;18311;52.754;18.118;2022-07-29T00:52:57;6.05;;;3.17;;
26710;SDS011;18311;52.754;18.118;2022-07-29T00:55:30;6.95;;;3.10;;
26710;SDS011;18311;52.754;18.118;2022-07-29T00:58:01;5.75;;;3.02;;
26710;SDS011;18311;52.754;18.118;2022-07-29T01:00:33;6.85;;;2.98;;
26710;SDS011;18311;52.754;18.118;2022-07-29T01:03:06;7.12;;;3.10;;
26710;SDS011;18311;52.754;18.118;2022-07-29T01:05:38;5.53;;;2.75;;
26710;SDS011;18311;52.754;18.118;2022-07-29T01:08:13;4.70;;;2.98;;
26710;SDS011;18311;52.754;18.118;2022-07-29T01:10:45;5.35;;;2.87;;
26710;SDS011;18311;52.754;18.118;2022-07-29T01:13:17;6.28;;;3.00;;
26710;SDS011;18311;52.754;18.118;2022-07-29T01:15:51;5.45;;;3.15;;
26710;SDS011;18311;52.754;18.118;2022-07-29T01:18:31;6.70;;;3.08;;
26710;SDS011;18311;52.754;18.118;2022-07-29T01:21:13;7.95;;;2.92;;
26710;SDS011;18311;52.754;18.118;2022-07-29T01:26:49;7.53;;;3.47;;
26710;SDS011;18311;52.754;18.118;2022-07-29T01:32:22;9.40;;;2.90;;
26710;SDS011;18311;52.754;18.118;2022-07-29T01:37:41;8.43;;;2.85;;
26710;SDS011;18311;52.754;18.118;2022-07-29T01:42:59;7.70;;;3.25;;
26710;SDS011;18311;52.754;18.118;2022-07-29T01:48:50;7.83;;;3.15;;
26710;SDS011;18311;52.754;18.118;2022-07-29T01:54:30;5.65;;;2.75;;
26710;SDS011;18311;52.754;18.118;2022-07-29T01:57:01;5.95;;;3.00;;
26710;SDS011;18311;52.754;18.118;2022-07-29T01:59:33;6.65;;;2.72;;
26710;SDS011;18311;52.754;18.118;2022-07-29T02:02:07;7.50;;;3.17;;
26710;SDS011;18311;52.754;18.118;2022-07-29T02:04:41;12.35;;;3.33;;
26710;SDS011;18311;52.754;18.118;2022-07-29T02:07:20;7.67;;;2.90;;
26710;SDS011;18311;52.754;18.118;2022-07-29T02:09:50;6.72;;;2.83;;
26710;SDS011;18311;52.754;18.118;2022-07-29T02:12:23;6.95;;;2.80;;
26710;SDS011;18311;52.754;18.118;2022-07-29T02:14:59;8.47;;;2.63;;
26710;SDS011;18311;52.754;18.118;2022-07-29T02:17:37;6.17;;;2.52;;
26710;SDS011;18311;52.754;18.118;2022-07-29T02:20:15;5.35;;;2.70;;
26710;SDS011;18311;52.754;18.118;2022-07-29T02:22:47;5.03;;;2.65;;
26710;SDS011;18311;52.754;18.118;2022-07-29T02:25:21;6.83;;;2.60;;
26710;SDS011;18311;52.754;18.118;2022-07-29T02:27:55;7.72;;;2.95;;
26710;SDS011;18311;52.754;18.118;2022-07-29T02:30:30;7.37;;;2.67;;
26710;SDS011;18311;52.754;18.118;2022-07-29T02:33:02;8.15;;;2.55;;
26710;SDS011;18311;52.754;18.118;2022-07-29T02:35:35;6.87;;;2.75;;
26710;SDS011;18311;52.754;18.118;2022-07-29T02:38:08;6.30;;;2.70;;
26710;SDS011;18311;52.754;18.118;2022-07-29T02:41:00;7.75;;;2.83;;
26710;SDS011;18311;52.754;18.118;2022-07-29T02:43:35;4.50;;;2.17;;
26710;SDS011;18311;52.754;18.118;2022-07-29T02:46:08;5.95;;;2.62;;
26710;SDS011;18311;52.754;18.118;2022-07-29T02:48:46;4.37;;;2.47;;
26710;SDS011;18311;52.754;18.118;2022-07-29T02:51:23;4.62;;;2.25;;
26710;SDS011;18311;52.754;18.118;2022-07-29T02:53:52;4.95;;;2.40;;
26710;SDS011;18311;52.754;18.118;2022-07-29T02:56:27;4.67;;;2.42;;
26710;SDS011;18311;52.754;18.118;2022-07-29T02:59:04;4.37;;;2.35;;
26710;SDS011;18311;52.754;18.118;2022-07-29T03:01:38;6.35;;;2.42;;
26710;SDS011;18311;52.754;18.118;2022-07-29T03:04:11;4.00;;;2.30;;
26710;SDS011;18311;52.754;18.118;2022-07-29T03:06:45;7.42;;;2.60;;
26710;SDS011;18311;52.754;18.118;2022-07-29T03:09:18;6.25;;;2.37;;
26710;SDS011;18311;52.754;18.118;2022-07-29T03:11:50;4.17;;;2.50;;
26710;SDS011;18311;52.754;18.118;2022-07-29T03:14:23;4.97;;;2.37;;
26710;SDS011;18311;52.754;18.118;2022-07-29T03:16:55;3.52;;;2.37;;
26710;SDS011;18311;52.754;18.118;2022-07-29T03:19:27;5.17;;;2.47;;
26710;SDS011;18311;52.754;18.118;2022-07-29T03:22:02;4.12;;;2.10;;
26710;SDS011;18311;52.754;18.118;2022-07-29T03:24:41;4.78;;;2.08;;
26710;SDS011;18311;52.754;18.118;2022-07-29T03:27:15;3.47;;;2.00;;
26710;SDS011;18311;52.754;18.118;2022-07-29T03:29:46;6.03;;;2.20;;
26710;SDS011;18311;52.754;18.118;2022-07-29T03:32:18;3.58;;;1.90;;
26710;SDS011;18311;52.754;18.118;2022-07-29T03:34:51;3.52;;;2.17;;
26710;SDS011;18311;52.754;18.118;2022-07-29T03:37:22;3.58;;;2.12;;
26710;SDS011;18311;52.754;18.118;2022-07-29T03:39:55;4.97;;;2.40;;
26710;SDS011;18311;52.754;18.118;2022-07-29T03:42:30;4.62;;;2.08;;
26710;SDS011;18311;52.754;18.118;2022-07-29T03:45:03;4.03;;;1.80;;
26710;SDS011;18311;52.754;18.118;2022-07-29T03:47:36;4.25;;;2.12;;
26710;SDS011;18311;52.754;18.118;2022-07-29T03:50:12;3.45;;;2.20;;
26710;SDS011;18311;52.754;18.118;2022-07-29T03:52:45;5.10;;;2.20;;
26710;SDS011;18311;52.754;18.118;2022-07-29T03:55:17;3.15;;;2.00;;
26710;SDS011;18311;52.754;18.118;2022-07-29T03:57:49;4.80;;;2.10;;
26710;SDS011;18311;52.754;18.118;2022-07-29T04:00:21;3.58;;;2.10;;
26710;SDS011;18311;52.754;18.118;2022-07-29T04:02:54;4.67;;;2.02;;
26710;SDS011;18311;52.754;18.118;2022-07-29T04:05:26;4.15;;;1.72;;
26710;SDS011;18311;52.754;18.118;2022-07-29T04:07:58;3.85;;;1.80;;
26710;SDS011;18311;52.754;18.118;2022-07-29T04:10:31;3.22;;;1.85;;
26710;SDS011;18311;52.754;18.118;2022-07-29T04:13:03;4.10;;;1.72;;
26710;SDS011;18311;52.754;18.118;2022-07-29T04:15:36;2.72;;;1.80;;
26710;SDS011;18311;52.754;18.118;2022-07-29T04:18:07;4.87;;;1.70;;
26710;SDS011;18311;52.754;18.118;2022-07-29T04:20:38;3.42;;;1.70;;
26710;SDS011;18311;52.754;18.118;2022-07-29T04:23:11;4.40;;;1.70;;
26710;SDS011;18311;52.754;18.118;2022-07-29T04:25:43;5.40;;;1.87;;
26710;SDS011;18311;52.754;18.118;2022-07-29T04:28:14;2.90;;;1.65;;
26710;SDS011;18311;52.754;18.118;2022-07-29T04:30:46;4.87;;;1.62;;
26710;SDS011;18311;52.754;18.118;2022-07-29T04:33:17;3.27;;;1.62;;
26710;SDS011;18311;52.754;18.118;2022-07-29T04:35:50;3.70;;;1.98;;
26710;SDS011;18311;52.754;18.118;2022-07-29T04:38:23;4.90;;;2.05;;
26710;SDS011;18311;52.754;18.118;2022-07-29T04:40:54;6.05;;;1.65;;
26710;SDS011;18311;52.754;18.118;2022-07-29T04:43:25;6.22;;;1.80;;
26710;SDS011;18311;52.754;18.118;2022-07-29T04:45:59;4.03;;;1.85;;
26710;SDS011;18311;52.754;18.118;2022-07-29T04:48:30;3.92;;;1.80;;
26710;SDS011;18311;52.754;18.118;2022-07-29T04:51:02;3.92;;;1.77;;
26710;SDS011;18311;52.754;18.118;2022-07-29T04:53:33;2.80;;;1.77;;
26710;SDS011;18311;52.754;18.118;2022-07-29T04:56:05;3.15;;;1.82;;
26710;SDS011;18311;52.754;18.118;2022-07-29T04:58:36;5.45;;;1.55;;
26710;SDS011;18311;52.754;18.118;2022-07-29T05:01:08;2.77;;;1.57;;
26710;SDS011;18311;52.754;18.118;2022-07-29T05:03:40;3.92;;;1.65;;
26710;SDS011;18311;52.754;18.118;2022-07-29T05:06:11;4.10;;;1.60;;
26710;SDS011;18311;52.754;18.118;2022-07-29T05:08:43;3.58;;;1.65;;
26710;SDS011;18311;52.754;18.118;2022-07-29T05:11:14;4.20;;;1.57;;
26710;SDS011;18311;52.754;18.118;2022-07-29T05:13:47;4.20;;;1.60;;
26710;SDS011;18311;52.754;18.118;2022-07-29T05:16:19;5.17;;;1.70;;
26710;SDS011;18311;52.754;18.118;2022-07-29T05:18:50;3.98;;;1.50;;
26710;SDS011;18311;52.754;18.118;2022-07-29T05:21:22;2.72;;;1.52;;
26710;SDS011;18311;52.754;18.118;2022-07-29T05:23:53;3.52;;;1.60;;
26710;SDS011;18311;52.754;18.118;2022-07-29T05:26:24;2.62;;;1.70;;
26710;SDS011;18311;52.754;18.118;2022-07-29T05:28:56;3.17;;;1.40;;
26710;SDS011;18311;52.754;18.118;2022-07-29T05:31:28;3.08;;;1.80;;
26710;SDS011;18311;52.754;18.118;2022-07-29T05:33:59;4.30;;;1.70;;
26710;SDS011;18311;52.754;18.118;2022-07-29T05:36:30;4.25;;;1.60;;
26710;SDS011;18311;52.754;18.118;2022-07-29T05:39:02;3.70;;;1.65;;
26710;SDS011;18311;52.754;18.118;2022-07-29T05:41:33;3.37;;;1.50;;
26710;SDS011;18311;52.754;18.118;2022-07-29T05:44:05;3.75;;;1.65;;
26710;SDS011;18311;52.754;18.118;2022-07-29T05:46:36;3.17;;;1.30;;
26710;SDS011;18311;52.754;18.118;2022-07-29T05:49:08;3.95;;;1.80;;
26710;SDS011;18311;52.754;18.118;2022-07-29T05:51:43;3.50;;;1.55;;
26710;SDS011;18311;52.754;18.118;2022-07-29T05:54:16;4.15;;;1.70;;
26710;SDS011;18311;52.754;18.118;2022-07-29T05:56:49;3.65;;;1.70;;
26710;SDS011;18311;52.754;18.118;2022-07-29T05:59:20;4.28;;;1.90;;
26710;SDS011;18311;52.754;18.118;2022-07-29T06:01:53;5.03;;;1.70;;
26710;SDS011;18311;52.754;18.118;2022-07-29T06:04:28;5.92;;;1.90;;
26710;SDS011;18311;52.754;18.118;2022-07-29T06:06:59;4.50;;;1.87;;
26710;SDS011;18311;52.754;18.118;2022-07-29T06:09:30;4.05;;;1.40;;
26710;SDS011;18311;52.754;18.118;2022-07-29T06:12:04;4.05;;;1.77;;
26710;SDS011;18311;52.754;18.118;2022-07-29T06:14:35;3.87;;;1.50;;
26710;SDS011;18311;52.754;18.118;2022-07-29T06:17:07;3.58;;;1.37;;
26710;SDS011;18311;52.754;18.118;2022-07-29T06:19:40;4.28;;;1.75;;
26710;SDS011;18311;52.754;18.118;2022-07-29T06:22:11;3.70;;;1.60;;
26710;SDS011;18311;52.754;18.118;2022-07-29T06:24:44;3.33;;;1.67;;
26710;SDS011;18311;52.754;18.118;2022-07-29T06:27:16;1.80;;;1.35;;
26710;SDS011;18311;52.754;18.118;2022-07-29T06:29:47;3.60;;;1.47;;
26710;SDS011;18311;52.754;18.118;2022-07-29T06:32:18;2.87;;;1.60;;
26710;SDS011;18311;52.754;18.118;2022-07-29T06:34:52;4.50;;;1.82;;
26710;SDS011;18311;52.754;18.118;2022-07-29T06:37:25;2.62;;;1.30;;
26710;SDS011;18311;52.754;18.118;2022-07-29T06:39:58;3.90;;;1.40;;
26710;SDS011;18311;52.754;18.118;2022-07-29T06:42:48;3.58;;;1.60;;
26710;SDS011;18311;52.754;18.118;2022-07-29T06:45:20;3.37;;;1.60;;
26710;SDS011;18311;52.754;18.118;2022-07-29T06:47:54;6.80;;;1.67;;
26710;SDS011;18311;52.754;18.118;2022-07-29T06:50:25;2.60;;;1.35;;
26710;SDS011;18311;52.754;18.118;2022-07-29T06:53:00;6.25;;;1.80;;
26710;SDS011;18311;52.754;18.118;2022-07-29T06:55:31;2.92;;;1.52;;
26710;SDS011;18311;52.754;18.118;2022-07-29T06:58:02;3.90;;;1.67;;
26710;SDS011;18311;52.754;18.118;2022-07-29T07:00:36;3.08;;;1.30;;
26710;SDS011;18311;52.754;18.118;2022-07-29T07:03:08;5.40;;;1.92;;
26710;SDS011;18311;52.754;18.118;2022-07-29T07:05:40;6.33;;;1.50;;
26710;SDS011;18311;52.754;18.118;2022-07-29T07:08:11;4.05;;;1.20;;
26710;SDS011;18311;52.754;18.118;2022-07-29T07:10:45;2.90;;;1.20;;
26710;SDS011;18311;52.754;18.118;2022-07-29T07:13:16;3.10;;;1.40;;
26710;SDS011;18311;52.754;18.118;2022-07-29T07:15:49;3.98;;;1.30;;
26710;SDS011;18311;52.754;18.118;2022-07-29T07:18:21;1.72;;;1.12;;
26710;SDS011;18311;52.754;18.118;2022-07-29T07:20:53;3.27;;;1.30;;
26710;SDS011;18311;52.754;18.118;2022-07-29T07:23:24;2.30;;;1.10;;
26710;SDS011;18311;52.754;18.118;2022-07-29T07:25:56;2.15;;;1.10;;
26710;SDS011;18311;52.754;18.118;2022-07-29T07:28:28;2.17;;;1.10;;
26710;SDS011;18311;52.754;18.118;2022-07-29T07:30:59;1.65;;;1.10;;
26710;SDS011;18311;52.754;18.118;2022-07-29T07:33:31;3.75;;;1.57;;
26710;SDS011;18311;52.754;18.118;2022-07-29T07:36:03;3.12;;;1.02;;
26710;SDS011;18311;52.754;18.118;2022-07-29T07:38:34;3.05;;;1.37;;
26710;SDS011;18311;52.754;18.118;2022-07-29T07:41:07;3.55;;;1.22;;
26710;SDS011;18311;52.754;18.118;2022-07-29T07:43:39;2.67;;;1.22;;
26710;SDS011;18311;52.754;18.118;2022-07-29T07:46:11;2.05;;;1.07;;
26710;SDS011;18311;52.754;18.118;2022-07-29T07:48:44;2.72;;;1.07;;
26710;SDS011;18311;52.754;18.118;2022-07-29T07:51:15;2.60;;;1.17;;
26710;SDS011;18311;52.754;18.118;2022-07-29T07:53:47;4.08;;;1.27;;
26710;SDS011;18311;52.754;18.118;2022-07-29T07:56:19;2.80;;;1.10;;
26710;SDS011;18311;52.754;18.118;2022-07-29T07:58:51;3.00;;;1.37;;
26710;SDS011;18311;52.754;18.118;2022-07-29T08:01:23;4.45;;;1.50;;
26710;SDS011;18311;52.754;18.118;2022-07-29T08:03:55;3.08;;;1.07;;
26710;SDS011;18311;52.754;18.118;2022-07-29T08:06:27;1.75;;;0.90;;
26710;SDS011;18311;52.754;18.118;2022-07-29T08:09:03;4.62;;;1.15;;
26710;SDS011;18311;52.754;18.118;2022-07-29T08:11:44;2.98;;;1.30;;
26710;SDS011;18311;52.754;18.118;2022-07-29T08:14:18;3.80;;;1.15;;
26710;SDS011;18311;52.754;18.118;2022-07-29T08:16:50;3.95;;;1.10;;
26710;SDS011;18311;52.754;18.118;2022-07-29T08:19:21;6.17;;;1.50;;
26710;SDS011;18311;52.754;18.118;2022-07-29T08:21:53;2.42;;;1.10;;
26710;SDS011;18311;52.754;18.118;2022-07-29T08:24:24;3.27;;;1.12;;
26710;SDS011;18311;52.754;18.118;2022-07-29T08:27:14;9.68;;;1.45;;
26710;SDS011;18311;52.754;18.118;2022-07-29T08:29:48;3.17;;;1.20;;
26710;SDS011;18311;52.754;18.118;2022-07-29T08:32:20;2.85;;;1.30;;
26710;SDS011;18311;52.754;18.118;2022-07-29T08:34:53;3.58;;;1.35;;
26710;SDS011;18311;52.754;18.118;2022-07-29T08:37:40;3.30;;;1.20;;
26710;SDS011;18311;52.754;18.118;2022-07-29T08:40:11;3.70;;;1.67;;
26710;SDS011;18311;52.754;18.118;2022-07-29T08:42:43;2.77;;;1.22;;
26710;SDS011;18311;52.754;18.118;2022-07-29T08:45:15;3.60;;;1.10;;
26710;SDS011;18311;52.754;18.118;2022-07-29T08:47:47;2.42;;;1.00;;
26710;SDS011;18311;52.754;18.118;2022-07-29T08:50:18;2.95;;;1.30;;
26710;SDS011;18311;52.754;18.118;2022-07-29T08:52:50;3.33;;;1.07;;
26710;SDS011;18311;52.754;18.118;2022-07-29T08:55:24;2.80;;;1.30;;
26710;SDS011;18311;52.754;18.118;2022-07-29T08:57:55;4.17;;;1.30;;
26710;SDS011;18311;52.754;18.118;2022-07-29T09:00:28;2.35;;;1.00;;
26710;SDS011;18311;52.754;18.118;2022-07-29T09:03:00;4.03;;;1.52;;
26710;SDS011;18311;52.754;18.118;2022-07-29T09:05:34;3.77;;;1.60;;
26710;SDS011;18311;52.754;18.118;2022-07-29T09:08:16;2.85;;;1.12;;
26710;SDS011;18311;52.754;18.118;2022-07-29T09:10:46;1.85;;;1.10;;
26710;SDS011;18311;52.754;18.118;2022-07-29T09:13:20;4.95;;;1.72;;
26710;SDS011;18311;52.754;18.118;2022-07-29T09:15:51;3.05;;;1.30;;
26710;SDS011;18311;52.754;18.118;2022-07-29T09:18:33;2.15;;;1.10;;
26710;SDS011;18311;52.754;18.118;2022-07-29T09:21:09;3.58;;;1.50;;
26710;SDS011;18311;52.754;18.118;2022-07-29T09:24:07;4.17;;;1.37;;
26710;SDS011;18311;52.754;18.118;2022-07-29T09:26:42;3.37;;;1.20;;
26710;SDS011;18311;52.754;18.118;2022-07-29T09:29:26;3.70;;;1.32;;
26710;SDS011;18311;52.754;18.118;2022-07-29T09:32:11;5.30;;;1.42;;
26710;SDS011;18311;52.754;18.118;2022-07-29T09:34:47;4.42;;;1.50;;
26710;SDS011;18311;52.754;18.118;2022-07-29T09:37:29;3.20;;;1.22;;
26710;SDS011;18311;52.754;18.118;2022-07-29T09:40:01;3.00;;;1.07;;
26710;SDS011;18311;52.754;18.118;2022-07-29T09:42:37;2.67;;;1.10;;
26710;SDS011;18311;52.754;18.118;2022-07-29T09:45:08;5.80;;;1.22;;
26710;SDS011;18311;52.754;18.118;2022-07-29T09:47:44;3.12;;;1.32;;
26710;SDS011;18311;52.754;18.118;2022-07-29T09:50:20;2.77;;;1.20;;
26710;SDS011;18311;52.754;18.118;2022-07-29T09:52:53;4.70;;;1.05;;
26710;SDS011;18311;52.754;18.118;2022-07-29T09:55:27;3.20;;;1.20;;
26710;SDS011;18311;52.754;18.118;2022-07-29T09:58:34;2.80;;;1.22;;
26710;SDS011;18311;52.754;18.118;2022-07-29T10:00:52;3.02;;;1.17;;
26710;SDS011;18311;52.754;18.118;2022-07-29T10:03:24;3.12;;;1.30;;
26710;SDS011;18311;52.754;18.118;2022-07-29T10:06:09;2.62;;;1.30;;
26710;SDS011;18311;52.754;18.118;2022-07-29T10:08:42;2.60;;;1.20;;
26710;SDS011;18311;52.754;18.118;2022-07-29T10:11:16;3.55;;;1.30;;
26710;SDS011;18311;52.754;18.118;2022-07-29T10:13:48;2.90;;;1.25;;
26710;SDS011;18311;52.754;18.118;2022-07-29T10:16:20;4.97;;;1.20;;
26710;SDS011;18311;52.754;18.118;2022-07-29T10:18:52;2.62;;;1.00;;
26710;SDS011;18311;52.754;18.118;2022-07-29T10:21:23;2.75;;;1.25;;
26710;SDS011;18311;52.754;18.118;2022-07-29T10:24:00;3.35;;;1.00;;
26710;SDS011;18311;52.754;18.118;2022-07-29T10:26:35;4.67;;;1.02;;
26710;SDS011;18311;52.754;18.118;2022-07-29T10:29:11;3.60;;;1.30;;
26710;SDS011;18311;52.754;18.118;2022-07-29T10:44:12;2.83;;;1.22;;
26710;SDS011;18311;52.754;18.118;2022-07-29T10:46:41;3.50;;;1.00;;
26710;SDS011;18311;52.754;18.118;2022-07-29T10:49:14;3.45;;;1.00;;
26710;SDS011;18311;52.754;18.118;2022-07-29T10:57:20;2.85;;;1.30;;
26710;SDS011;18311;52.754;18.118;2022-07-29T11:02:44;4.03;;;1.25;;
26710;SDS011;18311;52.754;18.118;2022-07-29T11:05:20;2.45;;;1.17;;
26710;SDS011;18311;52.754;18.118;2022-07-29T11:16:26;3.52;;;1.20;;
26710;SDS011;18311;52.754;18.118;2022-07-29T11:21:48;3.85;;;1.25;;
26710;SDS011;18311;52.754;18.118;2022-07-29T11:24:22;2.65;;;1.10;;
26710;SDS011;18311;52.754;18.118;2022-07-29T11:29:53;4.22;;;1.37;;
26710;SDS011;18311;52.754;18.118;2022-07-29T11:32:35;4.05;;;1.00;;
26710;SDS011;18311;52.754;18.118;2022-07-29T11:35:12;2.10;;;1.00;;
26710;SDS011;18311;52.754;18.118;2022-07-29T11:37:47;2.30;;;0.93;;
26710;SDS011;18311;52.754;18.118;2022-07-29T11:40:40;3.08;;;1.30;;
26710;SDS011;18311;52.754;18.118;2022-07-29T11:43:11;2.45;;;1.07;;
26710;SDS011;18311;52.754;18.118;2022-07-29T11:45:48;2.60;;;1.00;;
26710;SDS011;18311;52.754;18.118;2022-07-29T11:48:19;4.78;;;1.30;;
26710;SDS011;18311;52.754;18.118;2022-07-29T11:53:26;3.90;;;1.05;;
26710;SDS011;18311;52.754;18.118;2022-07-29T11:56:00;3.70;;;1.40;;
26710;SDS011;18311;52.754;18.118;2022-07-29T11:58:33;2.55;;;1.15;;
26710;SDS011;18311;52.754;18.118;2022-07-29T12:01:05;3.47;;;1.12;;
26710;SDS011;18311;52.754;18.118;2022-07-29T12:03:37;3.02;;;1.50;;
26710;SDS011;18311;52.754;18.118;2022-07-29T12:06:16;2.90;;;1.30;;
26710;SDS011;18311;52.754;18.118;2022-07-29T12:08:46;3.98;;;1.30;;
26710;SDS011;18311;52.754;18.118;2022-07-29T12:11:18;3.98;;;1.20;;
26710;SDS011;18311;52.754;18.118;2022-07-29T12:13:51;3.45;;;1.10;;
26710;SDS011;18311;52.754;18.118;2022-07-29T12:16:23;2.55;;;1.07;;
26710;SDS011;18311;52.754;18.118;2022-07-29T12:19:00;3.60;;;1.10;;
26710;SDS011;18311;52.754;18.118;2022-07-29T12:24:25;4.33;;;1.20;;
26710;SDS011;18311;52.754;18.118;2022-07-29T12:26:58;4.75;;;1.10;;
26710;SDS011;18311;52.754;18.118;2022-07-29T12:29:30;4.35;;;1.32;;
26710;SDS011;18311;52.754;18.118;2022-07-29T12:32:03;3.90;;;1.50;;
26710;SDS011;18311;52.754;18.118;2022-07-29T12:34:37;2.55;;;1.10;;
26710;SDS011;18311;52.754;18.118;2022-07-29T12:37:08;3.58;;;1.10;;
26710;SDS011;18311;52.754;18.118;2022-07-29T12:39:42;2.27;;;1.02;;
26710;SDS011;18311;52.754;18.118;2022-07-29T12:42:16;2.40;;;1.02;;
26710;SDS011;18311;52.754;18.118;2022-07-29T12:44:49;4.08;;;1.10;;
26710;SDS011;18311;52.754;18.118;2022-07-29T12:47:21;4.97;;;1.17;;
26710;SDS011;18311;52.754;18.118;2022-07-29T12:52:48;3.33;;;1.10;;
26710;SDS011;18311;52.754;18.118;2022-07-29T12:58:11;3.42;;;1.02;;
26710;SDS011;18311;52.754;18.118;2022-07-29T13:00:42;2.92;;;1.00;;
26710;SDS011;18311;52.754;18.118;2022-07-29T13:03:14;2.00;;;1.00;;
26710;SDS011;18311;52.754;18.118;2022-07-29T13:05:47;2.08;;;0.90;;
26710;SDS011;18311;52.754;18.118;2022-07-29T13:08:19;2.40;;;1.10;;
26710;SDS011;18311;52.754;18.118;2022-07-29T13:10:51;3.35;;;1.15;;
26710;SDS011;18311;52.754;18.118;2022-07-29T13:13:22;3.12;;;1.05;;
26710;SDS011;18311;52.754;18.118;2022-07-29T13:16:07;1.92;;;1.02;;
26710;SDS011;18311;52.754;18.118;2022-07-29T13:18:40;2.10;;;1.00;;
26710;SDS011;18311;52.754;18.118;2022-07-29T13:21:12;3.37;;;1.20;;
26710;SDS011;18311;52.754;18.118;2022-07-29T13:23:46;2.35;;;1.27;;
26710;SDS011;18311;52.754;18.118;2022-07-29T13:26:17;4.62;;;1.32;;
26710;SDS011;18311;52.754;18.118;2022-07-29T13:28:49;2.62;;;1.20;;
26710;SDS011;18311;52.754;18.118;2022-07-29T13:31:20;2.50;;;1.05;;
26710;SDS011;18311;52.754;18.118;2022-07-29T13:33:52;2.75;;;1.20;;
26710;SDS011;18311;52.754;18.118;2022-07-29T13:36:23;2.10;;;1.00;;
26710;SDS011;18311;52.754;18.118;2022-07-29T13:38:55;2.00;;;1.27;;
26710;SDS011;18311;52.754;18.118;2022-07-29T13:41:27;2.27;;;1.07;;
26710;SDS011;18311;52.754;18.118;2022-07-29T13:43:59;3.60;;;1.07;;
26710;SDS011;18311;52.754;18.118;2022-07-29T13:46:31;3.40;;;1.20;;
26710;SDS011;18311;52.754;18.118;2022-07-29T13:49:07;2.25;;;1.02;;
26710;SDS011;18311;52.754;18.118;2022-07-29T13:51:40;3.70;;;1.00;;
26710;SDS011;18311;52.754;18.118;2022-07-29T13:54:11;3.27;;;1.20;;
26710;SDS011;18311;52.754;18.118;2022-07-29T13:56:43;3.83;;;1.17;;
26710;SDS011;18311;52.754;18.118;2022-07-29T13:59:14;4.50;;;1.22;;
26710;SDS011;18311;52.754;18.118;2022-07-29T14:01:46;1.80;;;1.10;;
26710;SDS011;18311;52.754;18.118;2022-07-29T14:04:17;3.37;;;1.15;;
26710;SDS011;18311;52.754;18.118;2022-07-29T14:06:49;4.62;;;1.00;;
26710;SDS011;18311;52.754;18.118;2022-07-29T14:09:21;2.95;;;1.40;;
26710;SDS011;18311;52.754;18.118;2022-07-29T14:11:52;3.15;;;1.02;;
26710;SDS011;18311;52.754;18.118;2022-07-29T14:14:26;2.72;;;1.20;;
26710;SDS011;18311;52.754;18.118;2022-07-29T14:16:59;5.47;;;1.65;;
26710;SDS011;18311;52.754;18.118;2022-07-29T14:19:32;2.25;;;1.00;;
26710;SDS011;18311;52.754;18.118;2022-07-29T14:24:57;2.17;;;0.90;;
26710;SDS011;18311;52.754;18.118;2022-07-29T14:27:30;1.92;;;1.10;;
26710;SDS011;18311;52.754;18.118;2022-07-29T14:30:06;4.08;;;1.20;;
26710;SDS011;18311;52.754;18.118;2022-07-29T14:32:38;2.12;;;1.00;;
26710;SDS011;18311;52.754;18.118;2022-07-29T14:35:11;3.85;;;1.20;;
26710;SDS011;18311;52.754;18.118;2022-07-29T14:37:42;2.15;;;1.02;;
26710;SDS011;18311;52.754;18.118;2022-07-29T14:40:13;2.80;;;1.00;;
26710;SDS011;18311;52.754;18.118;2022-07-29T14:42:46;2.90;;;1.10;;
26710;SDS011;18311;52.754;18.118;2022-07-29T14:45:18;1.95;;;1.10;;
26710;SDS011;18311;52.754;18.118;2022-07-29T14:47:50;2.58;;;0.80;;
26710;SDS011;18311;52.754;18.118;2022-07-29T14:50:23;3.70;;;1.30;;
26710;SDS011;18311;52.754;18.118;2022-07-29T14:52:56;10.80;;;7.03;;
26710;SDS011;18311;52.754;18.118;2022-07-29T14:55:28;6.17;;;4.25;;
26710;SDS011;18311;52.754;18.118;2022-07-29T14:58:02;5.75;;;3.25;;
26710;SDS011;18311;52.754;18.118;2022-07-29T15:00:35;4.10;;;2.10;;
26710;SDS011;18311;52.754;18.118;2022-07-29T15:03:06;5.20;;;1.85;;
26710;SDS011;18311;52.754;18.118;2022-07-29T15:05:43;5.05;;;1.52;;
26710;SDS011;18311;52.754;18.118;2022-07-29T15:08:15;2.83;;;2.05;;
26710;SDS011;18311;52.754;18.118;2022-07-29T15:10:46;6.33;;;1.65;;
26710;SDS011;18311;52.754;18.118;2022-07-29T15:13:18;3.98;;;1.60;;
26710;SDS011;18311;52.754;18.118;2022-07-29T15:15:50;4.47;;;1.65;;
26710;SDS011;18311;52.754;18.118;2022-07-29T15:18:24;5.53;;;1.50;;
26710;SDS011;18311;52.754;18.118;2022-07-29T15:20:57;2.35;;;1.07;;
26710;SDS011;18311;52.754;18.118;2022-07-29T15:23:32;3.60;;;1.02;;
26710;SDS011;18311;52.754;18.118;2022-07-29T15:26:04;4.35;;;1.10;;
26710;SDS011;18311;52.754;18.118;2022-07-29T15:28:35;4.20;;;1.07;;
26710;SDS011;18311;52.754;18.118;2022-07-29T15:31:08;4.55;;;1.27;;
26710;SDS011;18311;52.754;18.118;2022-07-29T15:33:39;2.20;;;1.10;;
26710;SDS011;18311;52.754;18.118;2022-07-29T15:36:11;2.72;;;1.10;;
26710;SDS011;18311;52.754;18.118;2022-07-29T15:38:45;3.17;;;1.00;;
26710;SDS011;18311;52.754;18.118;2022-07-29T15:41:19;3.52;;;1.10;;
26710;SDS011;18311;52.754;18.118;2022-07-29T15:43:53;1.80;;;1.03;;
26710;SDS011;18311;52.754;18.118;2022-07-29T15:46:26;2.00;;;0.93;;
26710;SDS011;18311;52.754;18.118;2022-07-29T15:49:16;6.60;;;1.27;;
26710;SDS011;18311;52.754;18.118;2022-07-29T15:51:51;1.90;;;0.90;;
26710;SDS011;18311;52.754;18.118;2022-07-29T15:54:24;4.70;;;1.00;;
26710;SDS011;18311;52.754;18.118;2022-07-29T15:56:58;2.03;;;0.90;;
26710;SDS011;18311;52.754;18.118;2022-07-29T15:59:31;3.08;;;0.95;;
26710;SDS011;18311;52.754;18.118;2022-07-29T16:02:02;2.98;;;1.00;;
26710;SDS011;18311;52.754;18.118;2022-07-29T16:04:34;1.82;;;0.82;;
26710;SDS011;18311;52.754;18.118;2022-07-29T16:07:05;3.33;;;1.40;;
26710;SDS011;18311;52.754;18.118;2022-07-29T16:09:38;3.25;;;1.20;;
26710;SDS011;18311;52.754;18.118;2022-07-29T16:12:09;2.75;;;1.07;;
26710;SDS011;18311;52.754;18.118;2022-07-29T16:14:42;3.17;;;1.32;;
26710;SDS011;18311;52.754;18.118;2022-07-29T16:17:14;4.45;;;1.30;;